Time;durP1;ratioP1;P1;durP2;ratioP2;P2;SDS_P1;SDS_P2;PMS_P1;PMS_P2;Temp;Humidity;BMP_temperature;BMP_pressure;BME280_temperature;BME280_humidity;BME280_pressure;Samples;Min_cycle;Max_cycle;Signal;HPM_P1;HPM_P2
2021/10/09 00:00:26;;;;;;;32.05;14.20;;;;;;;5.84;66.09;102378.48;1646941;85;21038;-79
2021/10/09 00:02:54;;;;;;;30.72;14.20;;;;;;;5.81;66.13;102377.31;1611532;88;21116;-79
2021/10/09 00:05:20;;;;;;;31.07;14.40;;;;;;;5.79;66.18;102376.56;1611805;89;21154;-79
2021/10/09 00:07:46;;;;;;;30.70;14.23;;;;;;;5.74;66.22;102382.58;1611681;89;20947;-79
2021/10/09 00:10:14;;;;;;;31.35;14.23;;;;;;;5.70;66.27;102382.41;1611857;89;21051;-79
2021/10/09 00:12:39;;;;;;;21.75;12.85;;;;;;;5.63;66.32;102390.33;1611730;89;21039;-79
2021/10/09 00:15:07;;;;;;;24.00;13.90;;;;;;;5.59;66.37;102384.83;1611761;87;21073;-79
2021/10/09 00:17:33;;;;;;;26.82;14.13;;;;;;;5.54;66.44;102385.94;1611774;89;21157;-79
2021/10/09 00:19:59;;;;;;;30.10;13.80;;;;;;;5.49;66.49;102381.37;1612014;87;21046;-79
2021/10/09 00:22:25;;;;;;;24.87;13.80;;;;;;;5.46;66.55;102384.20;1612546;88;21035;-79
2021/10/09 00:24:51;;;;;;;27.17;13.58;;;;;;;5.44;66.60;102382.13;1612810;87;21078;-79
2021/10/09 00:27:17;;;;;;;26.12;12.80;;;;;;;5.41;66.67;102377.02;1624927;87;20961;-79
2021/10/09 00:29:43;;;;;;;33.28;13.75;;;;;;;5.40;66.71;102375.30;1644739;87;21197;-79
2021/10/09 00:32:09;;;;;;;30.35;13.72;;;;;;;5.40;66.76;102375.77;1636389;87;21035;-79
2021/10/09 00:34:35;;;;;;;28.35;13.20;;;;;;;5.34;66.83;102378.30;1612360;89;21296;-79
2021/10/09 00:37:01;;;;;;;24.85;12.98;;;;;;;5.30;66.88;102378.09;1612610;87;21106;-79
2021/10/09 00:39:27;;;;;;;40.63;13.55;;;;;;;5.28;66.93;102373.34;1613779;87;21115;-79
2021/10/09 00:41:53;;;;;;;27.87;12.93;;;;;;;5.26;66.99;102374.38;1644800;87;21087;-79
2021/10/09 00:44:19;;;;;;;25.27;12.80;;;;;;;5.22;67.05;102375.02;1620076;87;21100;-79
2021/10/09 00:46:46;;;;;;;26.57;12.63;;;;;;;5.18;67.14;102370.84;1612574;89;21061;-79
2021/10/09 00:49:15;;;;;;;33.33;13.53;;;;;;;5.18;67.19;102378.77;1612487;89;21547;-79
2021/10/09 00:51:47;;;;;;;23.12;12.15;;;;;;;5.15;67.24;102372.34;1612748;88;21047;-79
2021/10/09 00:54:14;;;;;;;27.55;13.18;;;;;;;5.13;67.30;102383.48;1611680;88;21971;-80
2021/10/09 00:56:42;;;;;;;25.30;12.43;;;;;;;5.11;67.36;102385.34;1612475;89;21024;-80
2021/10/09 00:59:09;;;;;;;25.68;11.90;;;;;;;5.10;67.40;102379.70;1612713;88;21071;-80
2021/10/09 01:01:36;;;;;;;21.25;12.13;;;;;;;5.09;67.46;102377.98;1613751;87;21091;-79
2021/10/09 01:04:05;;;;;;;27.30;13.72;;;;;;;5.07;67.50;102377.20;1612129;89;21059;-79
2021/10/09 01:06:31;;;;;;;30.68;14.83;;;;;;;5.03;67.57;102377.02;1612627;89;21185;-79
2021/10/09 01:08:58;;;;;;;28.23;14.58;;;;;;;5.00;67.62;102375.84;1611913;87;21070;-79
2021/10/09 01:11:24;;;;;;;30.25;14.05;;;;;;;4.97;67.67;102370.72;1612526;89;21047;-79
2021/10/09 01:13:50;;;;;;;23.50;13.10;;;;;;;4.94;67.77;102373.55;1613356;87;21095;-79
2021/10/09 01:16:20;;;;;;;37.58;14.33;;;;;;;4.91;67.82;102373.72;1612697;87;21596;-78
2021/10/09 01:18:49;;;;;;;28.98;15.05;;;;;;;4.89;67.86;102370.32;1614668;87;21087;-79
2021/10/09 01:21:15;;;;;;;32.40;14.45;;;;;;;4.84;67.92;102370.56;1612326;87;21094;-79
2021/10/09 01:23:41;;;;;;;31.62;13.68;;;;;;;4.82;68.01;102376.88;1612451;89;21095;-79
2021/10/09 01:26:08;;;;;;;28.98;13.75;;;;;;;4.78;68.05;102379.30;1612286;89;21022;-79
2021/10/09 01:28:36;;;;;;;28.70;14.20;;;;;;;4.74;68.12;102375.13;1643247;87;21029;-79
2021/10/09 01:31:02;;;;;;;25.40;14.30;;;;;;;4.70;68.18;102375.75;1644909;86;21038;-80
2021/10/09 01:33:28;;;;;;;33.00;15.13;;;;;;;4.68;68.24;102372.82;1639326;85;21074;-80
2021/10/09 01:35:56;;;;;;;31.77;14.40;;;;;;;4.66;68.28;102379.96;1613261;89;21539;-79
2021/10/09 01:38:24;;;;;;;34.92;14.40;;;;;;;4.62;68.36;102375.31;1613121;89;21043;-80
2021/10/09 01:40:50;;;;;;;29.27;14.85;;;;;;;4.60;68.43;102381.16;1613312;89;21039;-79
2021/10/09 01:43:18;;;;;;;30.88;15.68;;;;;;;4.56;68.50;102380.08;1613210;89;21878;-80
2021/10/09 01:45:44;;;;;;;29.25;15.63;;;;;;;4.53;68.55;102385.92;1613068;89;20996;-80
2021/10/09 01:48:10;;;;;;;33.13;16.10;;;;;;;4.49;68.62;102383.06;1613272;89;21597;-80
2021/10/09 01:50:36;;;;;;;28.17;15.83;;;;;;;4.45;68.70;102380.66;1613283;89;21055;-80
2021/10/09 01:53:05;;;;;;;31.48;15.32;;;;;;;4.41;68.77;102385.70;1613326;89;21078;-80
2021/10/09 01:55:32;;;;;;;31.77;15.60;;;;;;;4.35;68.84;102382.94;1633286;87;21255;-80
2021/10/09 01:57:58;;;;;;;36.28;15.83;;;;;;;4.29;68.90;102385.88;1644737;87;21108;-80
2021/10/09 02:00:24;;;;;;;34.67;17.17;;;;;;;4.22;68.98;102379.22;1612918;87;21043;-80
2021/10/09 02:02:50;;;;;;;29.42;15.60;;;;;;;4.16;69.07;102387.93;1609304;88;21059;-80
2021/10/09 02:05:16;;;;;;;28.10;16.65;;;;;;;4.09;69.16;102380.80;1608316;87;21654;-80
2021/10/09 02:07:42;;;;;;;34.03;16.65;;;;;;;4.01;69.24;102379.88;1608117;87;21505;-79
2021/10/09 02:10:13;;;;;;;32.73;16.85;;;;;;;3.95;69.33;102378.87;1607800;89;21023;-80
2021/10/09 02:12:37;;;;;;;31.73;16.87;;;;;;;3.89;69.40;102375.24;1607524;89;21106;-79
2021/10/09 02:15:12;;;;;;;34.27;17.27;;;;;;;3.84;69.48;102378.57;1609721;87;21088;-79
2021/10/09 02:18:06;;;;;;;27.65;16.55;;;;;;;3.80;69.54;102388.06;1607503;88;21062;-79
2021/10/09 02:25:46;;;;;;;28.50;17.25;;;;;;;3.61;69.83;102383.31;1585169;90;21094;-79
2021/10/09 02:28:23;;;;;;;37.25;17.75;;;;;;;3.57;69.91;102383.06;1571063;91;21063;-79
2021/10/09 02:30:49;;;;;;;34.95;17.12;;;;;;;3.52;69.99;102382.83;1572311;90;21183;-79
2021/10/09 02:33:15;;;;;;;34.75;17.62;;;;;;;3.49;70.06;102377.70;1595971;90;21099;-79
2021/10/09 02:35:41;;;;;;;33.53;18.00;;;;;;;3.44;70.14;102386.33;1596280;89;21088;-79
2021/10/09 02:38:08;;;;;;;40.75;18.92;;;;;;;3.39;70.23;102378.23;1596277;90;21024;-79
2021/10/09 02:40:35;;;;;;;36.28;19.12;;;;;;;3.34;70.31;102381.09;1596253;90;21608;-79
2021/10/09 02:43:02;;;;;;;29.37;17.17;;;;;;;3.30;70.41;102376.92;1594234;90;21113;-79
2021/10/09 02:45:28;;;;;;;33.75;17.82;;;;;;;3.26;70.47;102378.45;1582580;89;21167;-79
2021/10/09 02:47:59;;;;;;;32.63;17.87;;;;;;;3.20;70.56;102374.31;1582556;90;21085;-79
2021/10/09 02:50:25;;;;;;;34.75;17.70;;;;;;;3.19;70.62;102379.22;1592379;90;21114;-78
2021/10/09 02:52:51;;;;;;;32.25;18.40;;;;;;;3.18;70.70;102385.41;1584215;90;21084;-79
2021/10/09 02:55:20;;;;;;;36.10;17.48;;;;;;;3.16;70.79;102377.20;1605890;89;21053;-79
2021/10/09 02:57:47;;;;;;;25.85;13.13;;;;;;;3.12;70.87;102379.13;1598046;89;21143;-78
2021/10/09 03:00:14;;;;;;;41.95;19.02;;;;;;;3.09;70.95;102379.28;1581262;89;21047;-78
2021/10/09 03:02:40;;;;;;;33.73;17.62;;;;;;;3.07;71.02;102377.16;1580835;89;21079;-79
2021/10/09 03:05:07;;;;;;;37.17;17.50;;;;;;;3.08;71.10;102381.97;1596089;90;21062;-79
2021/10/09 03:07:33;;;;;;;36.58;17.67;;;;;;;3.06;71.16;102386.02;1596138;88;21110;-78
2021/10/09 03:09:59;;;;;;;34.18;18.20;;;;;;;3.05;71.23;102382.98;1603260;89;21160;-78
2021/10/09 03:12:25;;;;;;;31.17;17.35;;;;;;;3.05;71.31;102386.94;1603199;89;21099;-78
2021/10/09 03:14:51;;;;;;;33.38;17.75;;;;;;;3.04;71.36;102387.85;1608847;87;21079;-78
2021/10/09 03:17:18;;;;;;;40.38;18.32;;;;;;;3.03;71.45;102387.00;1607663;89;21118;-78
2021/10/09 03:19:44;;;;;;;31.27;17.87;;;;;;;3.02;71.52;102387.09;1607742;87;21035;-78
2021/10/09 03:22:10;;;;;;;32.23;18.27;;;;;;;2.99;71.58;102385.92;1607825;89;21183;-79
2021/10/09 03:24:36;;;;;;;31.93;17.35;;;;;;;2.97;71.67;102383.80;1608210;87;21087;-78
2021/10/09 03:27:02;;;;;;;33.85;18.57;;;;;;;2.94;71.74;102386.58;1607794;89;21107;-78
2021/10/09 03:29:28;;;;;;;39.53;18.60;;;;;;;2.91;71.80;102385.41;1607665;89;21103;-78
2021/10/09 03:31:54;;;;;;;36.70;18.62;;;;;;;2.89;71.86;102391.20;1607734;89;21508;-78
2021/10/09 03:34:20;;;;;;;32.05;17.15;;;;;;;2.87;71.93;102388.66;1607905;89;21511;-78
2021/10/09 03:36:46;;;;;;;35.70;17.60;;;;;;;2.83;71.99;102391.50;1607680;89;21484;-78
2021/10/09 03:39:16;;;;;;;35.00;17.77;;;;;;;2.81;72.08;102388.09;1608532;89;21050;-78
2021/10/09 03:41:45;;;;;;;28.62;15.93;;;;;;;2.81;72.17;102392.05;1610760;88;21519;-78
2021/10/09 03:44:08;;;;;;;28.12;14.95;;;;;;;2.81;72.24;102390.73;1622432;87;21128;-78
2021/10/09 03:46:42;;;;;;;34.03;14.25;;;;;;;2.85;72.34;102382.59;1635446;87;21161;-78
2021/10/09 03:49:18;;;;;;;28.27;14.18;;;;;;;2.89;72.41;102391.20;1612776;86;21079;-78
2021/10/09 03:54:14;;;;;;;36.15;14.75;;;;;;;2.96;72.59;102395.26;1630121;87;21057;-78
2021/10/09 03:56:40;;;;;;;26.00;14.13;;;;;;;2.95;72.69;102390.94;1635459;87;21105;-78
2021/10/09 03:59:08;;;;;;;25.62;14.53;;;;;;;2.99;72.76;102392.50;1635551;87;21121;-78
2021/10/09 04:01:34;;;;;;;27.37;14.30;;;;;;;3.03;72.85;102396.68;1635256;87;21045;-79
2021/10/09 04:04:00;;;;;;;30.80;14.95;;;;;;;3.07;72.93;102396.93;1630288;86;21062;-79
2021/10/09 04:06:26;;;;;;;28.52;15.13;;;;;;;3.09;73.00;102403.00;1613154;89;21631;-79
2021/10/09 04:08:52;;;;;;;28.95;14.47;;;;;;;3.11;73.07;102394.55;1613019;89;21060;-80
2021/10/09 04:11:19;;;;;;;25.55;14.10;;;;;;;3.14;73.12;102399.66;1613119;89;21190;-80
2021/10/09 04:13:45;;;;;;;32.23;16.32;;;;;;;3.16;73.20;102394.33;1613198;87;21035;-79
2021/10/09 04:16:11;;;;;;;27.87;15.95;;;;;;;3.16;73.25;102394.33;1612952;89;21050;-79
2021/10/09 04:18:37;;;;;;;29.80;16.05;;;;;;;3.18;73.30;102399.91;1613446;89;21019;-79
2021/10/09 04:21:03;;;;;;;28.30;16.10;;;;;;;3.16;73.33;102400.47;1626851;87;21553;-79
2021/10/09 04:23:30;;;;;;;33.20;17.17;;;;;;;3.15;73.38;102398.75;1644793;87;21549;-78
2021/10/09 04:25:56;;;;;;;30.48;15.90;;;;;;;3.14;73.40;102399.66;1644549;87;21143;-79
2021/10/09 04:28:22;;;;;;;30.85;15.60;;;;;;;3.13;73.41;102403.22;1640026;87;21117;-78
2021/10/09 04:30:48;;;;;;;30.65;16.15;;;;;;;3.11;73.45;102401.13;1612829;89;20935;-79
2021/10/09 04:33:14;;;;;;;29.02;15.93;;;;;;;3.09;73.46;102401.68;1616499;87;21095;-79
2021/10/09 04:35:40;;;;;;;26.80;15.60;;;;;;;3.06;73.49;102405.78;1644822;87;21147;-79
2021/10/09 04:38:11;;;;;;;29.12;16.30;;;;;;;3.01;73.50;102405.13;1644397;87;21104;-79
2021/10/09 04:40:34;;;;;;;30.60;15.75;;;;;;;2.98;73.52;102401.33;1643854;86;21419;-79
2021/10/09 04:43:00;;;;;;;36.48;15.95;;;;;;;2.95;73.55;102404.11;1644714;87;21045;-79
2021/10/09 04:45:26;;;;;;;28.07;15.25;;;;;;;2.93;73.57;102400.67;1623792;87;21119;-78
2021/10/09 04:47:53;;;;;;;31.60;14.70;;;;;;;2.93;73.63;102404.62;1612867;87;21166;-78
2021/10/09 04:50:19;;;;;;;30.50;15.50;;;;;;;2.91;73.67;102402.55;1612712;89;21509;-78
2021/10/09 04:52:45;;;;;;;33.33;15.03;;;;;;;2.91;73.69;102403.41;1612550;89;21536;-78
2021/10/09 04:55:11;;;;;;;31.97;15.35;;;;;;;2.91;73.74;102403.41;1612184;89;21110;-78
2021/10/09 04:57:37;;;;;;;29.00;15.90;;;;;;;2.90;73.79;102406.95;1612576;89;21047;-78
2021/10/09 05:00:04;;;;;;;30.35;17.62;;;;;;;2.88;73.85;102410.14;1612546;89;21137;-79
2021/10/09 05:02:30;;;;;;;36.38;17.70;;;;;;;2.86;73.90;102408.48;1612285;88;21567;-78
2021/10/09 05:04:56;;;;;;;34.40;18.60;;;;;;;2.85;73.92;102412.06;1612360;88;21532;-78
2021/10/09 05:07:22;;;;;;;34.75;18.10;;;;;;;2.83;73.98;102411.26;1612659;88;21528;-78
2021/10/09 05:09:50;;;;;;;31.30;18.12;;;;;;;2.79;74.02;102409.23;1612566;89;21693;-78
2021/10/09 05:12:16;;;;;;;36.93;19.62;;;;;;;2.78;74.05;102408.00;1612640;89;21148;-78
2021/10/09 05:14:42;;;;;;;33.25;17.52;;;;;;;2.77;74.07;102407.59;1621064;87;21596;-78
2021/10/09 05:17:09;;;;;;;33.70;18.37;;;;;;;2.74;74.10;102415.19;1612664;87;21508;-78
2021/10/09 05:19:35;;;;;;;36.40;17.55;;;;;;;2.73;74.10;102417.42;1612355;87;21054;-78
2021/10/09 05:22:01;;;;;;;31.65;16.55;;;;;;;2.73;74.12;102421.83;1612901;87;21043;-78
2021/10/09 05:24:27;;;;;;;36.03;17.17;;;;;;;2.73;74.14;102419.20;1632792;87;21132;-78
2021/10/09 05:26:53;;;;;;;30.20;15.15;;;;;;;2.76;74.18;102416.42;1644529;87;20961;-79
2021/10/09 05:29:20;;;;;;;29.15;15.25;;;;;;;2.80;74.22;102421.95;1644871;87;21040;-79
2021/10/09 05:31:52;;;;;;;32.90;16.60;;;;;;;2.85;74.23;102419.47;1644465;87;21092;-79
2021/10/09 05:34:17;;;;;;;29.82;15.48;;;;;;;2.90;74.28;102419.27;1644849;85;21438;-78
2021/10/09 05:36:43;;;;;;;32.98;16.37;;;;;;;2.97;74.31;102419.38;1644780;87;21087;-78
2021/10/09 05:39:09;;;;;;;35.78;16.17;;;;;;;3.06;74.34;102425.55;1644782;87;21108;-79
2021/10/09 05:41:35;;;;;;;30.48;15.15;;;;;;;3.13;74.37;102433.53;1644755;87;21121;-79
2021/10/09 05:44:01;;;;;;;33.80;16.42;;;;;;;3.18;74.42;102429.37;1623571;87;21046;-79
2021/10/09 05:46:27;;;;;;;37.23;17.40;;;;;;;3.23;74.44;102441.42;1613136;89;21087;-79
2021/10/09 05:48:55;;;;;;;30.25;15.78;;;;;;;3.27;74.46;102446.09;1619961;87;21173;-79
2021/10/09 05:51:24;;;;;;;28.32;16.25;;;;;;;3.32;74.47;102439.66;1643550;87;21041;-79
2021/10/09 05:56:33;;;;;;;30.95;15.70;;;;;;;3.45;74.47;102439.45;1640093;87;21387;-80
2021/10/09 06:44:42;;;;;;;31.27;16.85;;;;;;;6.79;72.89;102488.41;1653896;86;21082;-80
2021/10/09 06:47:16;;;;;;;23.00;15.32;;;;;;;6.89;72.69;102489.54;1655490;85;21051;-80
2021/10/09 07:00:13;;;;;;;35.33;22.58;;;;;;;7.73;71.96;102504.94;1651706;86;21084;-80
2021/10/09 07:02:41;;;;;;;33.88;21.70;;;;;;;7.84;71.73;102499.78;1653323;85;39279;-80
2021/10/09 07:05:08;;;;;;;27.98;17.42;;;;;;;7.92;71.51;102500.96;1647629;85;21065;-80
2021/10/09 07:07:39;;;;;;;30.20;17.52;;;;;;;7.92;71.31;102505.41;1650151;85;21973;-80
2021/10/09 07:10:03;;;;;;;28.35;16.90;;;;;;;8.14;71.17;102507.51;1660350;85;21557;-79
2021/10/09 07:12:29;;;;;;;25.72;15.68;;;;;;;8.22;70.93;102508.71;1654502;85;21026;-80
2021/10/09 07:14:55;;;;;;;26.50;17.37;;;;;;;8.28;70.71;102512.31;1668211;85;20927;-81
2021/10/09 07:17:21;;;;;;;30.10;17.20;;;;;;;8.22;70.46;102515.36;1670821;85;21083;-81
2021/10/09 07:19:47;;;;;;;27.73;18.10;;;;;;;8.20;70.27;102514.59;1670608;85;21156;-81
2021/10/09 07:22:13;;;;;;;32.42;16.27;;;;;;;8.28;70.05;102514.08;1650530;85;21100;-80
2021/10/09 07:24:39;;;;;;;29.18;16.02;;;;;;;8.41;69.88;102522.48;1648857;85;21014;-80
2021/10/09 07:27:05;;;;;;;28.27;15.78;;;;;;;8.52;69.63;102523.08;1655237;85;20947;-80
2021/10/09 07:29:31;;;;;;;28.55;15.70;;;;;;;8.50;69.43;102524.53;1661507;85;21091;-80
2021/10/09 07:31:57;;;;;;;36.65;16.85;;;;;;;8.59;69.24;102523.51;1649831;85;21519;-83
2021/10/09 07:34:23;;;;;;;26.97;14.23;;;;;;;8.61;68.99;102529.59;1647580;87;21113;-82
2021/10/09 07:39:41;;;;;;;24.30;13.90;;;;;;;8.69;68.57;102515.30;1558399;89;21527;-83
2021/10/09 07:42:07;;;;;;;22.73;14.80;;;;;;;8.93;68.34;102521.58;1578651;90;21613;-83
2021/10/09 07:44:33;;;;;;;28.00;14.98;;;;;;;8.89;68.07;102520.08;1566637;90;21152;-83
2021/10/09 07:47:01;;;;;;;23.67;13.65;;;;;;;8.96;67.87;102520.02;1595877;89;21109;-83
2021/10/09 07:49:27;;;;;;;27.62;13.62;;;;;;;9.00;67.64;102522.84;1568428;89;21107;-81
2021/10/09 07:51:53;;;;;;;23.00;14.58;;;;;;;9.08;67.48;102524.47;1605749;88;21107;-83
2021/10/09 07:54:19;;;;;;;26.05;14.65;;;;;;;9.21;67.33;102517.81;1566405;90;21079;-83
2021/10/09 07:56:45;;;;;;;23.55;14.83;;;;;;;9.37;67.17;102525.91;1567504;91;21181;-82
2021/10/09 07:59:11;;;;;;;25.00;14.43;;;;;;;9.49;67.03;102526.38;1589871;90;22254;-83
2021/10/09 08:01:37;;;;;;;28.25;14.35;;;;;;;9.66;66.89;102518.97;1619434;87;21927;-83
2021/10/09 08:04:04;;;;;;;23.07;13.90;;;;;;;9.73;66.67;102518.88;1621856;88;21131;-82
2021/10/09 08:06:30;;;;;;;23.77;13.40;;;;;;;9.67;66.40;102516.68;1597372;89;21064;-83
2021/10/09 08:08:56;;;;;;;23.57;13.35;;;;;;;9.63;66.13;102524.52;1601127;88;21743;-82
2021/10/09 08:11:24;;;;;;;21.35;13.08;;;;;;;9.70;66.01;102520.45;1609302;88;21481;-82
2021/10/09 08:13:50;;;;;;;23.73;14.98;;;;;;;9.87;65.89;102524.05;1619077;88;20998;-83
2021/10/09 08:16:16;;;;;;;25.65;11.53;;;;;;;10.07;65.73;102518.56;1615340;88;21040;-83
2021/10/09 08:18:42;;;;;;;21.68;12.65;;;;;;;10.27;65.58;102513.48;1600276;88;21144;-83
2021/10/09 08:21:08;;;;;;;22.73;12.75;;;;;;;10.29;65.36;102515.55;1607523;88;21163;-83
2021/10/09 08:23:43;;;;;;;24.12;12.13;;;;;;;10.39;65.19;102512.54;1594589;90;21605;-83
2021/10/09 08:36:51;;;;;;;23.50;11.78;;;;;;;10.34;63.95;102509.39;1593738;90;21081;-82
2021/10/09 08:38:58;;;;;;;20.80;12.30;;;;;;;10.39;63.69;102507.20;1627130;85;21087;-82
2021/10/09 08:41:24;;;;;;;19.12;11.05;;;;;;;10.48;63.49;102509.66;1648858;87;21636;-81
2021/10/09 08:43:51;;;;;;;18.85;11.20;;;;;;;10.54;63.27;102513.19;1655237;85;21027;-83
2021/10/09 08:46:18;;;;;;;24.80;11.45;;;;;;;10.58;62.98;102521.33;1666439;85;21262;-76
2021/10/09 08:48:50;;;;;;;18.15;12.28;;;;;;;10.61;62.79;102506.89;1650800;86;21564;-76
2021/10/09 08:51:12;;;;;;;24.92;11.28;;;;;;;10.69;62.53;102507.16;1649044;87;21168;-76
2021/10/09 08:53:41;;;;;;;18.27;11.80;;;;;;;10.79;62.34;102501.47;1656130;85;21494;-77
2021/10/09 08:56:07;;;;;;;20.17;11.22;;;;;;;10.88;62.10;102506.06;1649084;87;21049;-76
2021/10/09 08:58:40;;;;;;;25.25;10.82;;;;;;;10.90;61.82;102507.67;1649095;87;21205;-77
2021/10/09 09:01:16;;;;;;;19.70;11.33;;;;;;;10.99;61.57;102502.08;1648941;87;21070;-77
2021/10/09 09:06:45;;;;;;;20.68;10.68;;;;;;;11.16;61.10;102500.25;1648357;84;21058;-81
2021/10/09 09:33:55;;;;;;;17.55;9.13;;;;;;;11.80;58.41;102488.38;1678807;84;21030;-80
2021/10/09 09:39:09;;;;;;;15.40;8.68;;;;;;;11.83;57.37;102492.13;1642971;86;21767;-80
2021/10/09 09:41:48;;;;;;;15.23;7.97;;;;;;;11.80;56.81;102481.70;1635043;85;21028;-80
2021/10/09 09:44:17;;;;;;;16.82;8.78;;;;;;;11.77;56.27;102483.29;1672025;85;21527;-80
2021/10/09 09:47:07;;;;;;;16.37;9.15;;;;;;;12.01;55.95;102471.89;1634039;87;20999;-81
2021/10/09 09:49:33;;;;;;;16.35;7.42;;;;;;;12.01;55.95;102471.89;1671702;85;21099;-80
2021/10/09 09:52:00;;;;;;;13.55;8.23;;;;;;;12.11;55.84;102475.48;1672108;85;21132;-80
2021/10/09 09:54:29;;;;;;;13.25;7.70;;;;;;;12.11;55.51;102474.15;1633707;87;21022;-81
2021/10/09 09:57:00;;;;;;;11.53;7.87;;;;;;;12.07;55.11;102469.20;1672019;85;21099;-82
2021/10/09 09:59:31;;;;;;;13.58;7.92;;;;;;;12.11;54.96;102464.78;1663237;85;21010;-81
2021/10/09 10:02:03;;;;;;;24.30;7.95;;;;;;;12.19;54.78;102471.69;1658542;86;21127;-81
2021/10/09 10:04:34;;;;;;;23.12;9.98;;;;;;;12.22;54.46;102466.07;1656054;86;21158;-81
2021/10/09 10:07:01;;;;;;;13.50;8.75;;;;;;;12.31;54.33;102463.97;1614015;88;21059;-83
2021/10/09 10:09:28;;;;;;;19.23;8.83;;;;;;;12.37;54.23;102458.09;1654060;86;21122;-83
2021/10/09 10:12:00;;;;;;;17.40;8.18;;;;;;;12.41;54.19;102462.69;1653861;86;21130;-82
2021/10/09 10:14:28;;;;;;;13.35;7.97;;;;;;;12.41;53.90;102459.52;1653209;86;21508;-82
2021/10/09 10:16:59;;;;;;;16.27;7.78;;;;;;;12.40;53.80;102457.82;1653980;86;21339;-82
2021/10/09 10:19:54;;;;;;;10.18;7.55;;;;;;;12.51;53.73;102463.11;1653037;86;21150;-82
2021/10/09 10:22:40;;;;;;;11.12;7.58;;;;;;;12.56;53.43;102461.87;1653794;86;21623;-80
2021/10/09 10:25:29;;;;;;;13.35;7.65;;;;;;;12.53;53.00;102461.13;1653859;86;21035;-81
2021/10/09 10:28:02;;;;;;;13.55;8.03;;;;;;;12.59;52.70;102470.97;1639215;85;21100;-88
2021/10/09 10:30:39;;;;;;;13.65;7.65;;;;;;;12.61;52.35;102470.33;1639409;87;21819;-87
2021/10/09 10:33:11;;;;;;;18.50;9.65;;;;;;;12.64;52.09;102470.06;1641707;87;21473;-88
2021/10/09 10:35:43;;;;;;;18.87;9.93;;;;;;;12.66;51.80;102468.97;1616694;87;21617;-88
2021/10/09 10:38:34;;;;;;;19.95;10.08;;;;;;;12.71;51.65;102466.72;1661210;86;21015;-88
2021/10/09 10:41:00;;;;;;;18.55;11.08;;;;;;;12.75;51.35;102469.98;1641307;86;21088;-88
2021/10/09 10:43:44;;;;;;;12.98;7.80;;;;;;;12.72;50.94;102475.61;1644416;87;21178;-87
2021/10/09 10:46:28;;;;;;;12.18;7.97;;;;;;;12.70;50.78;102465.53;1617928;87;21054;-89
2021/10/09 10:49:21;;;;;;;18.65;9.45;;;;;;;12.71;50.58;102472.56;1616497;87;21868;-89
2021/10/09 10:57:03;;;;;;;12.93;7.58;;;;;;;12.69;49.93;102467.84;1638167;87;21121;-88
2021/10/09 10:59:42;;;;;;;11.28;7.53;;;;;;;12.75;49.89;102464.63;1638166;87;21017;-89
2021/10/09 11:02:30;;;;;;;20.88;8.43;;;;;;;12.78;49.75;102464.36;1639027;86;21096;-89
2021/10/09 11:05:02;;;;;;;15.85;8.15;;;;;;;12.80;49.59;102459.73;1639360;87;21128;-89
2021/10/09 11:07:36;;;;;;;17.40;8.13;;;;;;;12.87;49.55;102448.36;1639341;87;21557;-89
2021/10/09 11:10:16;;;;;;;11.83;6.78;;;;;;;12.96;49.63;102452.04;1639345;87;21239;-89
2021/10/09 11:12:47;;;;;;;13.58;7.65;;;;;;;13.08;49.59;102454.98;1639156;87;21044;-89
2021/10/09 11:15:25;;;;;;;14.90;8.63;;;;;;;13.10;49.49;102446.34;1640943;86;21033;-89
2021/10/09 11:18:04;;;;;;;11.12;7.47;;;;;;;13.07;49.18;102443.05;1663078;85;20982;-89
2021/10/09 11:20:34;;;;;;;13.70;7.37;;;;;;;13.13;49.14;102452.77;1663052;86;20990;-89
2021/10/09 11:23:05;;;;;;;11.57;6.40;;;;;;;13.19;48.95;102450.05;1663436;86;21125;-89
2021/10/09 11:25:36;;;;;;;14.63;6.90;;;;;;;13.18;48.77;102449.20;1663025;86;21034;-89
2021/10/09 11:28:08;;;;;;;13.78;7.35;;;;;;;13.25;48.83;102440.97;1662581;86;21097;-89
2021/10/09 11:30:34;;;;;;;9.18;6.45;;;;;;;13.34;48.76;102441.95;1661766;85;20995;-89
2021/10/09 11:33:00;;;;;;;11.00;6.47;;;;;;;13.37;48.59;102439.84;1639887;86;21558;-89
2021/10/09 11:35:39;;;;;;;12.45;6.50;;;;;;;13.36;48.22;102428.80;1663213;86;21776;-89
2021/10/09 11:38:23;;;;;;;10.90;6.42;;;;;;;13.36;47.97;102423.92;1662703;85;21088;-90
2021/10/09 11:41:02;;;;;;;14.63;8.70;;;;;;;13.31;47.56;102435.05;1667430;84;21087;-90
2021/10/09 11:43:45;;;;;;;11.05;7.20;;;;;;;13.31;47.34;102432.86;1690466;83;20999;-90
2021/10/09 11:54:26;;;;;;;11.28;6.72;;;;;;;13.27;46.54;102413.53;1691388;84;21019;-89
2021/10/09 11:56:47;;;;;;;14.25;7.37;;;;;;;13.33;46.55;102425.05;1690431;83;21011;-90
2021/10/09 11:59:14;;;;;;;16.25;8.23;;;;;;;13.35;46.50;102409.67;1691401;84;21023;-88
2021/10/09 12:01:47;;;;;;;13.83;6.85;;;;;;;13.42;46.58;102417.52;1691487;84;21138;-89
2021/10/09 12:04:22;;;;;;;12.78;7.15;;;;;;;13.45;46.58;102402.48;1691370;84;21035;-88
2021/10/09 12:06:58;;;;;;;10.35;6.80;;;;;;;13.43;46.53;102408.50;1691369;84;21007;-89
2021/10/09 12:09:57;;;;;;;10.28;6.72;;;;;;;13.42;46.56;102408.63;1690938;83;21015;-89
2021/10/09 12:12:20;;;;;;;10.55;6.40;;;;;;;13.42;46.52;102398.75;1688781;83;21062;-90
2021/10/09 12:14:47;;;;;;;11.05;6.92;;;;;;;13.42;46.47;102397.41;1691624;84;21120;-90
2021/10/09 12:17:14;;;;;;;12.20;6.47;;;;;;;13.45;46.46;102398.47;1691416;84;21066;-90
2021/10/09 12:19:40;;;;;;;9.30;6.40;;;;;;;13.48;46.30;102399.52;1691587;84;21054;-89
2021/10/09 12:22:14;;;;;;;11.48;6.53;;;;;;;13.45;46.21;102393.11;1691569;84;21617;-90
2021/10/09 12:24:50;;;;;;;11.33;6.78;;;;;;;13.42;46.09;102392.05;1691264;84;21034;-90
2021/10/09 12:27:21;;;;;;;9.78;6.03;;;;;;;13.42;46.11;102389.37;1666138;84;21189;-90
2021/10/09 12:30:05;;;;;;;14.78;6.72;;;;;;;13.51;46.22;102386.33;1691343;84;21004;-91
2021/10/09 12:32:49;;;;;;;13.43;6.17;;;;;;;13.50;46.05;102385.50;1691464;84;21034;-89
2021/10/09 12:35:30;;;;;;;10.25;6.00;;;;;;;13.49;45.89;102386.48;1691475;84;21015;-89
2021/10/09 12:38:01;;;;;;;12.75;6.50;;;;;;;13.46;45.79;102381.41;1690849;83;21070;-89
2021/10/09 12:40:39;;;;;;;10.85;6.45;;;;;;;13.55;45.84;102376.17;1691110;83;21949;-90
2021/10/09 12:43:08;;;;;;;10.03;5.80;;;;;;;13.50;45.68;102383.31;1689006;83;21002;-91
2021/10/09 12:45:34;;;;;;;11.33;5.78;;;;;;;13.45;45.56;102387.75;1691391;84;22428;-90
2021/10/09 12:48:00;;;;;;;9.70;6.67;;;;;;;13.43;45.46;102377.67;1691459;84;21504;-90
2021/10/09 12:50:29;;;;;;;8.40;5.72;;;;;;;13.44;45.48;102371.30;1691540;84;21019;-91
2021/10/09 12:52:56;;;;;;;12.00;6.97;;;;;;;13.54;45.47;102370.48;1691851;84;21815;-90
2021/10/09 12:55:27;;;;;;;16.00;7.42;;;;;;;13.54;45.25;102369.14;1691279;84;21074;-90
2021/10/09 12:58:08;;;;;;;10.32;6.25;;;;;;;13.49;45.24;102367.72;1691522;84;21102;-90
2021/10/09 13:00:36;;;;;;;9.15;5.67;;;;;;;13.50;45.28;102363.20;1691372;84;21038;-90
2021/10/09 13:03:02;;;;;;;14.00;6.45;;;;;;;13.49;45.14;102367.72;1691569;84;21051;-90
2021/10/09 13:05:31;;;;;;;12.90;6.22;;;;;;;13.50;45.12;102364.06;1691504;84;21158;-89
2021/10/09 13:07:58;;;;;;;14.98;6.05;;;;;;;13.56;45.10;102361.78;1691540;84;21006;-90
2021/10/09 13:10:24;;;;;;;10.88;6.10;;;;;;;13.55;45.07;102357.41;1691553;84;21022;-89
2021/10/09 13:12:51;;;;;;;12.65;6.45;;;;;;;13.52;44.93;102355.86;1691540;84;21567;-90
2021/10/09 13:15:17;;;;;;;10.88;6.92;;;;;;;13.53;44.89;102356.71;1691851;84;21515;-89
2021/10/09 13:17:46;;;;;;;8.80;6.17;;;;;;;13.57;44.84;102352.77;1691636;84;21124;-89
2021/10/09 13:20:12;;;;;;;16.25;6.90;;;;;;;13.57;44.75;102351.42;1691053;83;20999;-90
2021/10/09 13:22:38;;;;;;;10.45;6.70;;;;;;;13.61;44.81;102348.81;1691511;84;21046;-89
2021/10/09 13:25:05;;;;;;;10.58;6.15;;;;;;;13.62;44.68;102350.48;1691563;84;21039;-89
2021/10/09 13:27:31;;;;;;;13.70;6.87;;;;;;;13.56;44.51;102350.58;1691712;84;21046;-89